createdAt,value
2022-08-30T00:00:35.594Z,10.73
2022-08-30T00:03:07.114Z,13.43
2022-08-30T00:05:40.236Z,12.00
2022-08-30T00:08:11.368Z,8.88
2022-08-30T00:10:43.710Z,11.15
2022-08-30T00:13:15.223Z,10.13
2022-08-30T00:15:45.833Z,9.23
2022-08-30T00:18:18.196Z,11.52
2022-08-30T00:20:52.493Z,10.00
2022-08-30T00:23:23.285Z,13.95
2022-08-30T00:25:53.450Z,10.25
2022-08-30T00:28:24.775Z,10.73
2022-08-30T00:30:55.091Z,11.73
2022-08-30T00:33:25.847Z,10.63
2022-08-30T00:35:59.317Z,11.63
2022-08-30T00:38:29.755Z,11.13
2022-08-30T00:41:00.477Z,11.27
2022-08-30T00:43:36.708Z,10.10
2022-08-30T00:46:08.787Z,10.07
2022-08-30T00:48:42.013Z,11.18
2022-08-30T00:51:17.116Z,9.55
2022-08-30T00:53:51.311Z,11.85
2022-08-30T00:56:22.245Z,11.10
2022-08-30T00:58:56.920Z,10.43
2022-08-30T01:01:28.321Z,10.02
2022-08-30T01:04:02.427Z,10.13
2022-08-30T01:06:35.906Z,10.18
2022-08-30T01:09:08.151Z,10.63
2022-08-30T01:11:41.877Z,12.48
2022-08-30T01:16:46.391Z,9.20
2022-08-30T01:19:31.351Z,8.68
2022-08-30T01:22:08.620Z,11.65
2022-08-30T01:24:41.518Z,10.18
2022-08-30T01:27:11.733Z,9.50
2022-08-30T01:29:45.246Z,10.88
2022-08-30T01:32:21.246Z,10.82
2022-08-30T01:34:51.698Z,10.15
2022-08-30T01:37:28.069Z,8.65
2022-08-30T01:40:01.136Z,13.73
2022-08-30T01:42:31.547Z,9.93
2022-08-30T01:45:01.922Z,9.45
2022-08-30T01:47:33.282Z,10.80
2022-08-30T01:50:03.912Z,8.70
2022-08-30T01:52:34.189Z,9.43
2022-08-30T01:55:08.955Z,9.38
2022-08-30T01:57:39.345Z,11.50
2022-08-30T02:00:12.870Z,11.35
2022-08-30T02:02:44.005Z,10.05
2022-08-30T02:05:14.925Z,10.23
2022-08-30T02:07:45.456Z,10.00
2022-08-30T02:10:18.495Z,11.20
2022-08-30T02:12:48.750Z,9.85
2022-08-30T02:15:19.521Z,11.48
2022-08-30T02:17:49.779Z,13.68
2022-08-30T02:20:20.573Z,11.13
2022-08-30T02:22:51.054Z,10.93
2022-08-30T02:25:25.072Z,10.77
2022-08-30T02:27:55.258Z,13.07
2022-08-30T02:30:25.790Z,10.25
2022-08-30T02:32:55.982Z,13.13
2022-08-30T02:35:26.478Z,10.00
2022-08-30T02:37:57.134Z,9.52
2022-08-30T02:40:30.029Z,12.07
2022-08-30T02:43:00.391Z,10.27
2022-08-30T02:45:30.956Z,14.32
2022-08-30T02:48:01.356Z,10.55
2022-08-30T02:50:32.062Z,9.80
2022-08-30T02:53:02.210Z,9.82
2022-08-30T02:55:35.108Z,13.00
2022-08-30T02:58:05.505Z,10.07
2022-08-30T03:00:35.723Z,9.38
2022-08-30T03:03:07.623Z,11.10
2022-08-30T03:05:39.741Z,11.25
2022-08-30T03:08:11.031Z,11.65
2022-08-30T03:10:43.934Z,10.52
2022-08-30T03:13:14.163Z,9.97
2022-08-30T03:15:44.407Z,9.88
2022-08-30T03:18:14.554Z,13.02
2022-08-30T03:20:46.328Z,11.43
2022-08-30T03:23:25.991Z,12.63
2022-08-30T03:25:58.776Z,11.10
2022-08-30T03:28:29.789Z,15.35
2022-08-30T03:31:00.007Z,10.32
2022-08-30T03:33:30.442Z,14.27
2022-08-30T03:36:01.985Z,14.27
2022-08-30T03:38:32.107Z,9.93
2022-08-30T03:41:05.785Z,14.98
2022-08-30T03:43:37.717Z,8.88
2022-08-30T03:46:08.724Z,10.02
2022-08-30T03:48:38.964Z,11.57
2022-08-30T03:51:09.453Z,16.55
2022-08-30T03:53:39.615Z,11.73
2022-08-30T03:56:12.882Z,12.40
2022-08-30T03:58:43.315Z,11.90
2022-08-30T04:01:13.848Z,11.98
2022-08-30T04:03:44.097Z,12.30
2022-08-30T04:06:14.697Z,15.93
2022-08-30T04:08:46.157Z,9.13
2022-08-30T04:11:19.026Z,16.00
2022-08-30T04:13:51.903Z,13.43
2022-08-30T04:16:22.683Z,10.45
2022-08-30T04:18:52.949Z,12.30
2022-08-30T04:21:23.257Z,9.68
2022-08-30T04:23:53.536Z,10.95
2022-08-30T04:26:29.174Z,9.82
2022-08-30T04:29:00.039Z,12.38
2022-08-30T04:31:31.285Z,10.45
2022-08-30T04:34:01.577Z,11.20
2022-08-30T04:36:31.772Z,11.52
2022-08-30T04:39:02.291Z,9.88
2022-08-30T04:41:35.179Z,11.52
2022-08-30T04:44:06.251Z,9.97
2022-08-30T04:46:44.389Z,8.32
2022-08-30T04:49:14.816Z,10.38
2022-08-30T04:51:45.106Z,10.38
2022-08-30T04:54:15.339Z,10.50
2022-08-30T04:56:48.148Z,10.95
2022-08-30T04:59:20.503Z,10.82
2022-08-30T05:01:50.938Z,9.30
2022-08-30T05:04:21.135Z,11.13
2022-08-30T05:06:51.539Z,11.20
2022-08-30T05:09:22.021Z,10.30
2022-08-30T05:11:55.208Z,9.25
2022-08-30T05:14:25.342Z,11.48
2022-08-30T05:16:55.589Z,22.38
2022-08-30T05:19:25.895Z,9.07
2022-08-30T05:21:56.168Z,14.07
2022-08-30T05:24:26.298Z,8.95
2022-08-30T05:26:59.418Z,8.48
2022-08-30T05:29:29.676Z,9.18
2022-08-30T05:31:59.937Z,11.98
2022-08-30T05:34:32.927Z,11.10
2022-08-30T05:37:03.333Z,11.60
2022-08-30T05:39:44.900Z,9.88
2022-08-30T05:42:23.912Z,10.52
2022-08-30T05:44:55.049Z,8.77
2022-08-30T05:47:25.363Z,8.50
2022-08-30T05:49:55.680Z,11.20
2022-08-30T05:52:28.078Z,9.85
2022-08-30T05:55:00.457Z,8.73
2022-08-30T05:57:35.393Z,11.03
2022-08-30T06:00:12.040Z,9.38
2022-08-30T06:02:42.414Z,8.02
2022-08-30T06:05:14.642Z,9.88
2022-08-30T06:07:45.379Z,8.93
2022-08-30T06:10:15.661Z,8.52
2022-08-30T06:12:50.102Z,8.50
2022-08-30T06:15:20.477Z,7.87
2022-08-30T06:17:51.372Z,7.57
2022-08-30T06:20:21.640Z,8.32
2022-08-30T06:22:51.939Z,10.82
2022-08-30T06:25:22.164Z,7.60
2022-08-30T06:27:56.586Z,8.38
2022-08-30T06:30:26.970Z,7.13
2022-08-30T06:32:57.151Z,7.80
2022-08-30T06:35:28.140Z,9.00
2022-08-30T06:37:58.646Z,7.88
2022-08-30T06:40:29.044Z,7.55
2022-08-30T06:43:01.934Z,9.15
2022-08-30T06:45:32.233Z,8.40
2022-08-30T06:48:02.566Z,8.77
2022-08-30T06:50:32.770Z,8.07
2022-08-30T06:53:06.115Z,7.25
2022-08-30T06:55:36.320Z,9.00
2022-08-30T06:58:09.802Z,6.80
2022-08-30T07:00:41.989Z,7.47
2022-08-30T07:03:12.205Z,7.97
2022-08-30T07:05:42.430Z,9.27
2022-08-30T07:08:12.704Z,8.13
2022-08-30T07:10:43.108Z,8.38
2022-08-30T07:13:16.329Z,7.68
2022-08-30T07:18:30.635Z,8.52
2022-08-30T07:21:02.031Z,8.20
2022-08-30T07:23:32.226Z,8.30
2022-08-30T07:26:07.986Z,7.50
2022-08-30T07:28:41.603Z,8.10
2022-08-30T07:31:12.752Z,7.68
2022-08-30T07:33:43.384Z,6.90
2022-08-30T07:36:14.459Z,9.88
2022-08-30T07:38:44.831Z,7.63
2022-08-30T07:41:21.524Z,7.40
2022-08-30T07:43:54.504Z,8.73
2022-08-30T07:46:25.936Z,9.63
2022-08-30T07:48:58.846Z,7.57
2022-08-30T07:51:30.733Z,8.52
2022-08-30T07:54:01.082Z,8.60
2022-08-30T07:56:31.458Z,7.45
2022-08-30T07:59:04.452Z,9.45
2022-08-30T08:01:34.819Z,9.07
2022-08-30T08:04:05.790Z,5.90
2022-08-30T08:06:36.014Z,8.55
2022-08-30T08:09:06.931Z,6.82
2022-08-30T08:11:37.709Z,7.30
2022-08-30T08:14:11.759Z,7.13
2022-08-30T08:16:44.899Z,8.27
2022-08-30T08:19:15.232Z,6.07
2022-08-30T08:21:45.461Z,6.45
2022-08-30T08:24:16.550Z,8.57
2022-08-30T08:26:46.765Z,6.20
2022-08-30T08:29:19.599Z,6.88
2022-08-30T08:31:49.908Z,6.00
2022-08-30T08:34:23.473Z,9.07
2022-08-30T08:36:56.725Z,6.43
2022-08-30T08:42:07.086Z,6.97
2022-08-30T08:44:54.774Z,7.30
2022-08-30T08:47:32.795Z,6.40
2022-08-30T08:50:06.621Z,8.48
2022-08-30T08:53:03.398Z,7.60
2022-08-30T08:55:33.650Z,6.93
2022-08-30T08:58:04.974Z,6.80
2022-08-30T09:00:37.855Z,5.97
2022-08-30T09:03:08.941Z,6.35
2022-08-30T09:05:43.800Z,7.78
2022-08-30T09:08:17.122Z,6.60
2022-08-30T09:10:57.074Z,6.63
2022-08-30T09:13:28.515Z,6.05
2022-08-30T09:16:02.059Z,8.95
2022-08-30T09:18:45.656Z,5.95
2022-08-30T09:21:17.668Z,6.15
2022-08-30T09:23:54.117Z,7.63
2022-08-30T09:26:32.603Z,6.28
2022-08-30T09:29:05.140Z,5.70
2022-08-30T09:32:01.301Z,7.53
2022-08-30T09:34:40.577Z,7.10
2022-08-30T09:37:31.852Z,6.90
2022-08-30T09:40:03.186Z,8.02
2022-08-30T09:42:33.553Z,7.00
2022-08-30T09:45:13.317Z,7.63
2022-08-30T09:47:46.740Z,7.53
2022-08-30T09:50:20.080Z,5.25
2022-08-30T09:53:02.805Z,7.20
2022-08-30T09:55:46.772Z,6.18
2022-08-30T09:58:29.938Z,5.85
2022-08-30T10:01:09.590Z,5.78
2022-08-30T10:03:51.623Z,5.70
2022-08-30T10:06:31.900Z,5.63
2022-08-30T10:09:14.654Z,6.10
2022-08-30T10:11:56.488Z,6.28
2022-08-30T10:14:52.932Z,6.68
2022-08-30T10:17:39.376Z,6.82
2022-08-30T10:20:22.095Z,6.07
2022-08-30T10:22:59.110Z,7.10
2022-08-30T10:25:35.148Z,6.20
2022-08-30T10:28:16.012Z,5.88
2022-08-30T10:30:51.261Z,5.97
2022-08-30T10:33:31.777Z,5.85
2022-08-30T10:36:10.335Z,8.00
2022-08-30T10:38:43.965Z,5.38
2022-08-30T10:44:00.061Z,5.30
2022-08-30T10:46:37.426Z,6.22
2022-08-30T10:49:12.986Z,6.63
2022-08-30T10:51:52.808Z,7.00
2022-08-30T10:54:31.413Z,5.20
2022-08-30T10:57:02.948Z,6.68
2022-08-30T10:59:33.563Z,6.05
2022-08-30T11:02:45.012Z,5.55
2022-08-30T11:05:31.390Z,8.38
2022-08-30T11:08:22.070Z,7.20
2022-08-30T11:11:05.029Z,5.82
2022-08-30T11:13:38.850Z,6.55
2022-08-30T11:16:15.525Z,7.35
2022-08-30T11:18:51.039Z,6.53
2022-08-30T11:21:36.977Z,5.82
2022-08-30T11:24:12.993Z,6.78
2022-08-30T11:27:00.117Z,5.88
2022-08-30T11:29:37.428Z,6.45
2022-08-30T11:32:27.985Z,5.95
2022-08-30T11:35:02.703Z,6.05
2022-08-30T11:37:39.722Z,5.95
2022-08-30T11:40:35.727Z,6.03
2022-08-30T11:43:45.678Z,8.65
2022-08-30T11:46:24.465Z,5.97
2022-08-30T11:48:56.850Z,5.78
2022-08-30T11:52:08.414Z,6.22
2022-08-30T11:55:00.210Z,6.88
2022-08-30T11:57:40.647Z,7.57
2022-08-30T12:00:15.264Z,5.13
2022-08-30T12:02:54.842Z,5.63
2022-08-30T12:05:51.439Z,6.68
2022-08-30T12:08:56.479Z,6.22
2022-08-30T12:12:02.761Z,5.78
2022-08-30T12:14:47.815Z,8.18
2022-08-30T12:17:47.299Z,6.30
2022-08-30T12:20:23.924Z,6.90
2022-08-30T12:22:55.622Z,7.68
2022-08-30T12:25:33.623Z,6.45
2022-08-30T12:28:17.998Z,6.80
2022-08-30T12:30:51.039Z,6.25
2022-08-30T12:33:39.512Z,5.47
2022-08-30T12:36:15.802Z,6.43
2022-08-30T12:38:46.529Z,5.50
2022-08-30T12:41:23.573Z,6.78
2022-08-30T12:43:56.063Z,5.78
2022-08-30T12:46:30.142Z,5.30
2022-08-30T12:49:01.005Z,4.72
2022-08-30T12:51:41.180Z,6.63
2022-08-30T12:54:19.059Z,6.40
2022-08-30T12:57:10.029Z,6.03
2022-08-30T12:59:58.165Z,6.65
2022-08-30T13:02:46.835Z,6.70
2022-08-30T13:05:40.258Z,6.40
2022-08-30T13:08:22.474Z,5.63
2022-08-30T13:11:07.999Z,5.90
2022-08-30T13:13:44.460Z,5.43
2022-08-30T13:16:26.482Z,7.13
2022-08-30T13:19:22.730Z,6.80
2022-08-30T13:21:55.427Z,5.15
2022-08-30T13:24:26.234Z,8.10
2022-08-30T13:26:57.132Z,6.50
2022-08-30T13:29:30.158Z,6.00
2022-08-30T13:32:01.049Z,5.50
2022-08-30T13:34:36.449Z,7.38
2022-08-30T13:37:44.358Z,6.72
2022-08-30T13:40:04.774Z,5.70
2022-08-30T13:42:35.329Z,7.35
2022-08-30T13:45:40.795Z,7.57
2022-08-30T13:47:57.989Z,5.03
2022-08-30T13:50:30.918Z,5.40
2022-08-30T13:53:01.146Z,6.35
2022-08-30T13:55:31.919Z,5.32
2022-08-30T13:58:02.173Z,6.47
2022-08-30T14:00:37.632Z,5.85
2022-08-30T14:03:09.000Z,5.85
2022-08-30T14:06:00.378Z,6.38
2022-08-30T14:08:54.781Z,5.35
2022-08-30T14:11:25.763Z,6.25
2022-08-30T14:16:47.671Z,5.30
2022-08-30T14:19:19.107Z,6.45
2022-08-30T14:21:51.921Z,5.70
2022-08-30T14:24:23.357Z,5.28
2022-08-30T14:26:54.756Z,7.30
2022-08-30T14:29:30.050Z,5.68
2022-08-30T14:32:00.884Z,6.20
2022-08-30T14:34:31.628Z,6.60
2022-08-30T14:37:06.970Z,8.50
2022-08-30T14:39:39.019Z,7.35
2022-08-30T14:42:11.533Z,6.65
2022-08-30T14:44:56.207Z,6.00
2022-08-30T14:47:29.476Z,5.68
2022-08-30T14:50:02.083Z,8.15
2022-08-30T14:52:35.618Z,5.93
2022-08-30T14:55:09.765Z,6.20
2022-08-30T14:57:40.621Z,4.85
2022-08-30T15:00:14.685Z,6.22
2022-08-30T15:02:44.999Z,6.18
2022-08-30T15:05:15.354Z,6.28
2022-08-30T15:07:50.694Z,6.43
2022-08-30T15:10:21.357Z,5.50
2022-08-30T15:12:53.691Z,5.32
2022-08-30T15:15:25.458Z,6.05
2022-08-30T15:17:55.674Z,5.60
2022-08-30T15:20:27.688Z,5.07
2022-08-30T15:23:00.574Z,5.63
2022-08-30T15:25:31.279Z,6.55
2022-08-30T15:28:01.626Z,6.47
2022-08-30T15:30:31.943Z,7.40
2022-08-30T15:33:02.114Z,9.10
2022-08-30T15:35:32.341Z,5.70
2022-08-30T15:38:05.253Z,7.32
2022-08-30T15:40:35.621Z,5.32
2022-08-30T15:43:06.570Z,7.03
2022-08-30T15:45:37.146Z,7.13
2022-08-30T15:48:07.519Z,6.55
2022-08-30T15:50:38.013Z,6.68
2022-08-30T15:53:13.364Z,5.53
2022-08-30T15:55:43.620Z,6.05
2022-08-30T15:58:13.856Z,7.20
2022-08-30T16:00:45.669Z,5.65
2022-08-30T16:03:16.266Z,6.60
2022-08-30T16:05:50.392Z,6.22
2022-08-30T16:08:23.291Z,5.45
2022-08-30T16:10:54.928Z,6.10
2022-08-30T16:13:25.356Z,6.30
2022-08-30T16:15:55.655Z,5.65
2022-08-30T16:18:25.942Z,6.30
2022-08-30T16:21:05.406Z,5.68
2022-08-30T16:23:39.168Z,5.60
2022-08-30T16:26:12.137Z,6.30
2022-08-30T16:28:44.863Z,4.72
2022-08-30T16:31:15.700Z,5.18
2022-08-30T16:33:46.060Z,5.85
2022-08-30T16:36:16.646Z,5.57
2022-08-30T16:38:49.607Z,5.68
2022-08-30T16:41:24.666Z,6.20
2022-08-30T16:43:55.364Z,5.40
2022-08-30T16:46:28.189Z,6.95
2022-08-30T16:49:01.539Z,6.07
2022-08-30T16:51:33.702Z,5.40
2022-08-30T16:54:09.791Z,7.23
2022-08-30T16:56:40.632Z,6.40
2022-08-30T16:59:12.307Z,6.70
2022-08-30T17:01:44.906Z,6.88
2022-08-30T17:04:18.855Z,6.70
2022-08-30T17:06:51.454Z,7.13
2022-08-30T17:09:24.500Z,7.18
2022-08-30T17:11:56.431Z,6.43
2022-08-30T17:14:28.253Z,8.20
2022-08-30T17:17:00.931Z,7.10
2022-08-30T17:19:31.566Z,7.55
2022-08-30T17:22:01.954Z,7.35
2022-08-30T17:24:34.830Z,6.82
2022-08-30T17:27:05.099Z,8.75
2022-08-30T17:29:35.781Z,6.30
2022-08-30T17:32:06.865Z,9.32
2022-08-30T17:34:37.083Z,6.60
2022-08-30T17:37:07.716Z,6.63
2022-08-30T17:39:40.721Z,9.27
2022-08-30T17:42:10.942Z,7.30
2022-08-30T17:44:42.407Z,9.73
2022-08-30T17:47:13.127Z,10.73
2022-08-30T17:49:43.436Z,7.18
2022-08-30T17:52:14.109Z,8.90
2022-08-30T17:54:46.934Z,6.57
2022-08-30T17:57:17.184Z,5.88
2022-08-30T17:59:47.438Z,5.50
2022-08-30T18:02:21.483Z,6.63
2022-08-30T18:05:01.050Z,7.90
2022-08-30T18:07:31.433Z,7.03
2022-08-30T18:10:05.615Z,5.93
2022-08-30T18:12:35.979Z,7.85
2022-08-30T18:15:12.632Z,5.32
2022-08-30T18:17:49.095Z,6.43
2022-08-30T18:20:20.202Z,8.23
2022-08-30T18:22:52.634Z,8.40
2022-08-30T18:25:25.577Z,6.32
2022-08-30T18:27:58.885Z,7.45
2022-08-30T18:30:34.740Z,5.80
2022-08-30T18:33:10.252Z,6.10
2022-08-30T18:35:47.436Z,7.97
2022-08-30T18:38:19.024Z,4.70
2022-08-30T18:41:01.385Z,6.28
2022-08-30T18:43:31.908Z,5.65
2022-08-30T18:46:05.717Z,6.90
2022-08-30T18:48:37.010Z,6.40
2022-08-30T18:51:07.965Z,5.03
2022-08-30T18:53:40.664Z,5.32
2022-08-30T18:56:16.362Z,5.55
2022-08-30T18:58:47.698Z,7.15
2022-08-30T19:01:22.752Z,5.13
2022-08-30T19:03:53.285Z,4.90
2022-08-30T19:06:23.536Z,4.38
2022-08-30T19:08:54.609Z,5.93
2022-08-30T19:11:28.075Z,6.28
2022-08-30T19:13:58.606Z,5.65
2022-08-30T19:16:28.796Z,6.85
2022-08-30T19:18:59.165Z,5.45
2022-08-30T19:21:29.402Z,5.45
2022-08-30T19:23:59.779Z,8.35
2022-08-30T19:26:32.838Z,6.20
2022-08-30T19:29:03.111Z,5.10
2022-08-30T19:31:33.820Z,8.13
2022-08-30T19:34:03.984Z,6.15
2022-08-30T19:36:34.227Z,7.10
2022-08-30T19:39:04.574Z,4.90
2022-08-30T19:41:38.434Z,5.45
2022-08-30T19:44:09.680Z,7.50
2022-08-30T19:46:40.089Z,6.05
2022-08-30T19:49:11.454Z,4.88
2022-08-30T19:51:46.589Z,4.93
2022-08-30T19:54:17.332Z,5.47
2022-08-30T19:56:50.220Z,6.30
2022-08-30T19:59:22.798Z,6.05
2022-08-30T20:01:53.564Z,5.45
2022-08-30T20:04:24.404Z,6.05
2022-08-30T20:06:54.668Z,5.90
2022-08-30T20:09:25.284Z,5.00
2022-08-30T20:14:51.696Z,5.10
2022-08-30T20:17:24.574Z,4.82
2022-08-30T20:19:55.001Z,5.80
2022-08-30T20:22:25.261Z,8.05
2022-08-30T20:24:56.983Z,5.60
2022-08-30T20:27:30.375Z,8.75
2022-08-30T20:30:00.769Z,6.88
2022-08-30T20:32:31.906Z,5.50
2022-08-30T20:35:02.215Z,6.97
2022-08-30T20:37:33.385Z,5.05
2022-08-30T20:40:04.984Z,5.28
2022-08-30T20:42:41.579Z,4.80
2022-08-30T20:45:13.428Z,5.13
2022-08-30T20:47:44.324Z,4.93
2022-08-30T20:50:18.254Z,5.53
2022-08-30T20:52:49.508Z,6.68
2022-08-30T20:55:20.240Z,4.35
2022-08-30T20:57:53.322Z,6.05
2022-08-30T21:00:26.653Z,6.37
2022-08-30T21:02:57.403Z,4.93
2022-08-30T21:05:29.115Z,5.07
2022-08-30T21:07:59.641Z,6.75
2022-08-30T21:10:30.966Z,6.30
2022-08-30T21:13:03.757Z,5.50
2022-08-30T21:15:37.700Z,6.63
2022-08-30T21:18:09.292Z,4.93
2022-08-30T21:20:39.526Z,7.28
2022-08-30T21:23:09.669Z,6.28
2022-08-30T21:25:41.319Z,7.30
2022-08-30T21:28:14.102Z,5.43
2022-08-30T21:30:47.614Z,6.25
2022-08-30T21:33:17.942Z,5.20
2022-08-30T21:36:00.528Z,6.32
2022-08-30T21:38:30.799Z,5.70
2022-08-30T21:41:01.057Z,5.13
2022-08-30T21:43:34.018Z,5.13
2022-08-30T21:46:08.496Z,4.97
2022-08-30T21:48:39.629Z,5.85
2022-08-30T21:51:11.160Z,5.13
2022-08-30T21:53:41.566Z,5.13
2022-08-30T21:56:13.223Z,5.68
2022-08-30T21:58:50.582Z,5.90
2022-08-30T22:01:23.675Z,6.57
2022-08-30T22:03:55.601Z,4.93
2022-08-30T22:06:30.744Z,5.72
2022-08-30T22:09:03.504Z,5.47
2022-08-30T22:11:37.734Z,4.47
2022-08-30T22:14:11.839Z,5.03
2022-08-30T22:16:42.826Z,6.53
2022-08-30T22:19:13.219Z,6.10
2022-08-30T22:21:48.088Z,10.15
2022-08-30T22:24:18.608Z,7.38
2022-08-30T22:26:49.604Z,7.03
2022-08-30T22:29:22.711Z,6.75
2022-08-30T22:31:53.013Z,7.93
2022-08-30T22:34:23.280Z,6.30
2022-08-30T22:36:53.458Z,7.35
2022-08-30T22:39:23.699Z,6.70
2022-08-30T22:41:53.936Z,6.50
2022-08-30T22:44:26.800Z,7.05
2022-08-30T22:46:57.098Z,5.30
2022-08-30T22:49:27.250Z,6.40
2022-08-30T22:51:57.508Z,5.65
2022-08-30T22:54:27.661Z,6.00
2022-08-30T22:56:57.872Z,5.45
2022-08-30T22:59:31.562Z,6.53
2022-08-30T23:02:03.308Z,5.72
2022-08-30T23:04:33.685Z,5.88
2022-08-30T23:07:03.835Z,7.80
2022-08-30T23:09:34.099Z,6.93
2022-08-30T23:12:04.792Z,6.55
2022-08-30T23:14:37.634Z,7.25
2022-08-30T23:17:07.954Z,4.47
2022-08-30T23:19:38.195Z,6.18
2022-08-30T23:22:08.377Z,5.47
2022-08-30T23:24:50.948Z,6.03
2022-08-30T23:27:33.928Z,8.15
2022-08-30T23:30:20.670Z,7.72
2022-08-30T23:33:03.184Z,6.65
2022-08-30T23:35:45.874Z,6.63
2022-08-30T23:38:29.003Z,5.82
2022-08-30T23:41:11.560Z,6.13
2022-08-30T23:43:54.539Z,6.18
2022-08-30T23:46:39.739Z,5.07
2022-08-30T23:49:22.453Z,5.65
2022-08-30T23:52:05.215Z,6.25
2022-08-30T23:54:47.870Z,5.43
2022-08-30T23:57:30.480Z,6.60
